To NAV CANADA Home Page Login to a new session Search on AWWS site Disclaimer Vers la page française équivalente Tips FAQ What's new on the site To the Forecasts and Observations / NOTAM section To "File a Flight Plan" website Publications and other links Update of the User's profile FIC Telephone Numbers My Weather Data Folder Route Weather Data Regional Weather Data Local Weather Data To the Forecasts and Observations / NOTAM section
Request Generated 03/19/2019 at 23:05:15 UTC . Weather information available at that time is displayed.

METAR/TAF

POND INLET/NU    (show WxCam)

METAR CYIO 192300Z 15012KT 25SM FEW016 SCT028 SCT046 M29/M34 A2965 RMK SC1SC2SC1 S00 AFT 15UTC/LAST STFD OBS/NEXT 201500 UTC SLP052=
METAR CYIO 192200Z 15011KT 25SM FEW028 FEW046 SCT230 SCT280 M29/M33 A2964 RMK SC1SC1CC1CC1 SLP051=
METAR CYIO 192100Z 14012KT 25SM FEW028 FEW046 SCT065 SCT140 M28/M32 A2964 RMK SC1SC1SC1AC1 SLP050=

TAF CYIO 191838Z 1919/2007 18008KT P6SM IC FEW040 SCT160
RMK NXT FCST BY 200100Z=
Your time UTC time
Weather data provided by Environment Canada and NAV CANADA